sensor_id;sensor_type;location;lat;lon;timestamp;P1;durP1;ratioP1;P2;durP2;ratioP2
19026;SDS011;9646;52.034;5.554;2023-12-28T00:01:10;3.70;;;2.38;;
19026;SDS011;9646;52.034;5.554;2023-12-28T00:03:37;4.40;;;2.20;;
19026;SDS011;9646;52.034;5.554;2023-12-28T00:06:05;4.72;;;2.60;;
19026;SDS011;9646;52.034;5.554;2023-12-28T00:08:33;3.78;;;2.20;;
19026;SDS011;9646;52.034;5.554;2023-12-28T00:11:00;5.20;;;2.35;;
19026;SDS011;9646;52.034;5.554;2023-12-28T00:13:29;3.15;;;2.40;;
19026;SDS011;9646;52.034;5.554;2023-12-28T00:15:56;5.55;;;2.33;;
19026;SDS011;9646;52.034;5.554;2023-12-28T00:18:23;4.03;;;2.45;;
19026;SDS011;9646;52.034;5.554;2023-12-28T00:20:50;3.13;;;2.22;;
19026;SDS011;9646;52.034;5.554;2023-12-28T00:23:17;3.63;;;2.63;;
19026;SDS011;9646;52.034;5.554;2023-12-28T00:25:45;3.35;;;2.20;;
19026;SDS011;9646;52.034;5.554;2023-12-28T00:28:12;3.28;;;2.20;;
19026;SDS011;9646;52.034;5.554;2023-12-28T00:30:40;3.40;;;1.98;;
19026;SDS011;9646;52.034;5.554;2023-12-28T00:33:07;3.45;;;2.47;;
19026;SDS011;9646;52.034;5.554;2023-12-28T00:35:34;3.55;;;2.15;;
19026;SDS011;9646;52.034;5.554;2023-12-28T00:38:02;5.05;;;2.38;;
19026;SDS011;9646;52.034;5.554;2023-12-28T00:40:29;5.70;;;2.35;;
19026;SDS011;9646;52.034;5.554;2023-12-28T00:42:56;3.70;;;2.28;;
19026;SDS011;9646;52.034;5.554;2023-12-28T00:45:23;4.78;;;2.45;;
19026;SDS011;9646;52.034;5.554;2023-12-28T00:47:51;4.50;;;2.30;;
19026;SDS011;9646;52.034;5.554;2023-12-28T00:50:21;5.10;;;2.55;;
19026;SDS011;9646;52.034;5.554;2023-12-28T00:52:48;3.58;;;2.47;;
19026;SDS011;9646;52.034;5.554;2023-12-28T00:55:15;4.03;;;2.20;;
19026;SDS011;9646;52.034;5.554;2023-12-28T00:57:42;5.20;;;2.45;;
19026;SDS011;9646;52.034;5.554;2023-12-28T01:00:10;7.45;;;2.28;;
19026;SDS011;9646;52.034;5.554;2023-12-28T01:02:37;3.53;;;2.10;;
19026;SDS011;9646;52.034;5.554;2023-12-28T01:05:06;3.75;;;2.42;;
19026;SDS011;9646;52.034;5.554;2023-12-28T01:07:33;4.20;;;2.30;;
19026;SDS011;9646;52.034;5.554;2023-12-28T01:10:00;4.55;;;2.35;;
19026;SDS011;9646;52.034;5.554;2023-12-28T01:12:27;3.97;;;2.13;;
19026;SDS011;9646;52.034;5.554;2023-12-28T01:14:54;4.57;;;2.35;;
19026;SDS011;9646;52.034;5.554;2023-12-28T01:17:21;4.57;;;2.20;;
19026;SDS011;9646;52.034;5.554;2023-12-28T01:19:48;3.58;;;2.00;;
19026;SDS011;9646;52.034;5.554;2023-12-28T01:22:17;4.85;;;2.28;;
19026;SDS011;9646;52.034;5.554;2023-12-28T01:24:45;3.88;;;2.20;;
19026;SDS011;9646;52.034;5.554;2023-12-28T01:27:14;4.43;;;2.58;;
19026;SDS011;9646;52.034;5.554;2023-12-28T01:29:41;3.33;;;2.28;;
19026;SDS011;9646;52.034;5.554;2023-12-28T01:32:08;3.95;;;2.20;;
19026;SDS011;9646;52.034;5.554;2023-12-28T01:34:35;6.35;;;2.30;;
19026;SDS011;9646;52.034;5.554;2023-12-28T01:37:02;4.57;;;2.55;;
19026;SDS011;9646;52.034;5.554;2023-12-28T01:39:31;6.20;;;2.17;;
19026;SDS011;9646;52.034;5.554;2023-12-28T01:41:58;3.80;;;2.20;;
19026;SDS011;9646;52.034;5.554;2023-12-28T01:44:25;4.30;;;2.30;;
19026;SDS011;9646;52.034;5.554;2023-12-28T01:46:52;7.50;;;2.33;;
19026;SDS011;9646;52.034;5.554;2023-12-28T01:49:19;5.65;;;2.35;;
19026;SDS011;9646;52.034;5.554;2023-12-28T01:51:47;4.05;;;2.08;;
19026;SDS011;9646;52.034;5.554;2023-12-28T01:54:14;3.65;;;1.88;;
19026;SDS011;9646;52.034;5.554;2023-12-28T01:56:43;4.22;;;2.28;;
19026;SDS011;9646;52.034;5.554;2023-12-28T01:59:11;5.82;;;2.53;;
19026;SDS011;9646;52.034;5.554;2023-12-28T02:01:39;4.75;;;2.28;;
19026;SDS011;9646;52.034;5.554;2023-12-28T02:04:06;3.13;;;2.42;;
19026;SDS011;9646;52.034;5.554;2023-12-28T02:06:33;6.72;;;2.97;;
19026;SDS011;9646;52.034;5.554;2023-12-28T02:09:00;4.93;;;2.42;;
19026;SDS011;9646;52.034;5.554;2023-12-28T02:11:27;4.55;;;2.55;;
19026;SDS011;9646;52.034;5.554;2023-12-28T02:13:56;5.95;;;2.25;;
19026;SDS011;9646;52.034;5.554;2023-12-28T02:16:25;4.05;;;2.20;;
19026;SDS011;9646;52.034;5.554;2023-12-28T02:18:52;3.75;;;2.22;;
19026;SDS011;9646;52.034;5.554;2023-12-28T02:21:21;2.92;;;2.17;;
19026;SDS011;9646;52.034;5.554;2023-12-28T02:23:49;4.78;;;2.20;;
19026;SDS011;9646;52.034;5.554;2023-12-28T02:26:18;4.68;;;2.13;;
19026;SDS011;9646;52.034;5.554;2023-12-28T02:28:45;4.68;;;1.88;;
19026;SDS011;9646;52.034;5.554;2023-12-28T02:31:14;5.72;;;2.30;;
19026;SDS011;9646;52.034;5.554;2023-12-28T02:33:43;6.93;;;2.05;;
19026;SDS011;9646;52.034;5.554;2023-12-28T02:36:12;3.65;;;1.90;;
19026;SDS011;9646;52.034;5.554;2023-12-28T02:38:40;5.68;;;1.98;;
19026;SDS011;9646;52.034;5.554;2023-12-28T02:41:08;3.53;;;1.73;;
19026;SDS011;9646;52.034;5.554;2023-12-28T02:43:36;5.43;;;2.10;;
19026;SDS011;9646;52.034;5.554;2023-12-28T02:46:03;4.88;;;2.00;;
19026;SDS011;9646;52.034;5.554;2023-12-28T02:48:30;2.85;;;1.80;;
19026;SDS011;9646;52.034;5.554;2023-12-28T02:50:57;3.63;;;1.90;;
19026;SDS011;9646;52.034;5.554;2023-12-28T02:53:24;4.70;;;1.95;;
19026;SDS011;9646;52.034;5.554;2023-12-28T02:55:50;6.80;;;1.92;;
19026;SDS011;9646;52.034;5.554;2023-12-28T02:58:17;5.07;;;1.80;;
19026;SDS011;9646;52.034;5.554;2023-12-28T03:00:46;4.25;;;2.28;;
19026;SDS011;9646;52.034;5.554;2023-12-28T03:03:14;5.18;;;1.98;;
19026;SDS011;9646;52.034;5.554;2023-12-28T03:05:41;5.93;;;2.30;;
19026;SDS011;9646;52.034;5.554;2023-12-28T03:08:08;9.25;;;2.40;;
19026;SDS011;9646;52.034;5.554;2023-12-28T03:10:35;5.85;;;1.80;;
19026;SDS011;9646;52.034;5.554;2023-12-28T03:13:02;4.90;;;2.03;;
19026;SDS011;9646;52.034;5.554;2023-12-28T03:15:29;5.45;;;1.77;;
19026;SDS011;9646;52.034;5.554;2023-12-28T03:18:00;7.00;;;2.17;;
19026;SDS011;9646;52.034;5.554;2023-12-28T03:20:27;5.97;;;2.17;;
19026;SDS011;9646;52.034;5.554;2023-12-28T03:22:54;5.07;;;2.05;;
19026;SDS011;9646;52.034;5.554;2023-12-28T03:25:21;4.03;;;1.92;;
19026;SDS011;9646;52.034;5.554;2023-12-28T03:27:48;6.22;;;2.20;;
19026;SDS011;9646;52.034;5.554;2023-12-28T03:30:15;7.32;;;1.80;;
19026;SDS011;9646;52.034;5.554;2023-12-28T03:32:42;6.05;;;1.95;;
19026;SDS011;9646;52.034;5.554;2023-12-28T03:35:10;4.32;;;1.60;;
19026;SDS011;9646;52.034;5.554;2023-12-28T03:37:38;6.40;;;2.10;;
19026;SDS011;9646;52.034;5.554;2023-12-28T03:40:05;6.03;;;1.80;;
19026;SDS011;9646;52.034;5.554;2023-12-28T03:42:32;4.28;;;1.85;;
19026;SDS011;9646;52.034;5.554;2023-12-28T03:44:59;4.97;;;1.90;;
19026;SDS011;9646;52.034;5.554;2023-12-28T03:47:26;4.75;;;1.67;;
19026;SDS011;9646;52.034;5.554;2023-12-28T03:49:53;8.43;;;2.13;;
19026;SDS011;9646;52.034;5.554;2023-12-28T03:52:23;5.63;;;1.90;;
19026;SDS011;9646;52.034;5.554;2023-12-28T03:54:54;8.38;;;2.28;;
19026;SDS011;9646;52.034;5.554;2023-12-28T03:57:22;6.55;;;1.85;;
19026;SDS011;9646;52.034;5.554;2023-12-28T03:59:49;3.45;;;1.88;;
19026;SDS011;9646;52.034;5.554;2023-12-28T04:02:16;6.50;;;1.90;;
19026;SDS011;9646;52.034;5.554;2023-12-28T04:04:43;7.00;;;2.30;;
19026;SDS011;9646;52.034;5.554;2023-12-28T04:07:10;8.25;;;2.05;;
19026;SDS011;9646;52.034;5.554;2023-12-28T04:09:39;8.55;;;2.55;;
19026;SDS011;9646;52.034;5.554;2023-12-28T04:12:06;6.57;;;2.50;;
19026;SDS011;9646;52.034;5.554;2023-12-28T04:14:33;6.20;;;2.00;;
19026;SDS011;9646;52.034;5.554;2023-12-28T04:17:00;6.88;;;1.80;;
19026;SDS011;9646;52.034;5.554;2023-12-28T04:19:27;6.32;;;2.22;;
19026;SDS011;9646;52.034;5.554;2023-12-28T04:21:54;7.45;;;2.05;;
19026;SDS011;9646;52.034;5.554;2023-12-28T04:24:21;10.18;;;2.10;;
19026;SDS011;9646;52.034;5.554;2023-12-28T04:26:50;4.85;;;1.77;;
19026;SDS011;9646;52.034;5.554;2023-12-28T04:29:17;7.35;;;2.38;;
19026;SDS011;9646;52.034;5.554;2023-12-28T04:31:44;8.93;;;2.55;;
19026;SDS011;9646;52.034;5.554;2023-12-28T04:34:12;9.52;;;2.30;;
19026;SDS011;9646;52.034;5.554;2023-12-28T04:36:39;9.57;;;2.95;;
19026;SDS011;9646;52.034;5.554;2023-12-28T04:39:07;11.07;;;2.15;;
19026;SDS011;9646;52.034;5.554;2023-12-28T04:41:34;9.25;;;2.22;;
19026;SDS011;9646;52.034;5.554;2023-12-28T04:44:02;8.80;;;2.33;;
19026;SDS011;9646;52.034;5.554;2023-12-28T04:46:30;7.68;;;2.60;;
19026;SDS011;9646;52.034;5.554;2023-12-28T04:48:57;6.60;;;2.10;;
19026;SDS011;9646;52.034;5.554;2023-12-28T04:51:24;8.75;;;3.05;;
19026;SDS011;9646;52.034;5.554;2023-12-28T04:53:51;13.32;;;2.53;;
19026;SDS011;9646;52.034;5.554;2023-12-28T04:56:18;7.28;;;2.10;;
19026;SDS011;9646;52.034;5.554;2023-12-28T04:58:45;7.25;;;2.30;;
19026;SDS011;9646;52.034;5.554;2023-12-28T05:01:14;8.90;;;2.40;;
19026;SDS011;9646;52.034;5.554;2023-12-28T05:03:41;8.27;;;2.35;;
19026;SDS011;9646;52.034;5.554;2023-12-28T05:06:08;8.98;;;2.63;;
19026;SDS011;9646;52.034;5.554;2023-12-28T05:08:35;9.55;;;2.70;;
19026;SDS011;9646;52.034;5.554;2023-12-28T05:11:02;9.55;;;2.40;;
19026;SDS011;9646;52.034;5.554;2023-12-28T05:13:29;9.45;;;2.42;;
19026;SDS011;9646;52.034;5.554;2023-12-28T05:15:56;9.55;;;2.72;;
19026;SDS011;9646;52.034;5.554;2023-12-28T05:18:24;7.10;;;2.50;;
19026;SDS011;9646;52.034;5.554;2023-12-28T05:20:51;12.50;;;2.88;;
19026;SDS011;9646;52.034;5.554;2023-12-28T05:23:18;9.15;;;2.50;;
19026;SDS011;9646;52.034;5.554;2023-12-28T05:25:45;11.88;;;3.42;;
19026;SDS011;9646;52.034;5.554;2023-12-28T05:28:13;10.15;;;2.55;;
19026;SDS011;9646;52.034;5.554;2023-12-28T05:30:40;9.02;;;2.40;;
19026;SDS011;9646;52.034;5.554;2023-12-28T05:33:07;8.23;;;2.67;;
19026;SDS011;9646;52.034;5.554;2023-12-28T05:35:36;10.93;;;2.58;;
19026;SDS011;9646;52.034;5.554;2023-12-28T05:38:03;13.00;;;2.42;;
19026;SDS011;9646;52.034;5.554;2023-12-28T05:40:30;7.25;;;2.28;;
19026;SDS011;9646;52.034;5.554;2023-12-28T05:42:57;11.85;;;2.97;;
19026;SDS011;9646;52.034;5.554;2023-12-28T05:45:24;13.02;;;2.63;;
19026;SDS011;9646;52.034;5.554;2023-12-28T05:47:52;10.50;;;2.70;;
19026;SDS011;9646;52.034;5.554;2023-12-28T05:50:19;8.43;;;2.28;;
19026;SDS011;9646;52.034;5.554;2023-12-28T05:52:47;13.35;;;3.13;;
19026;SDS011;9646;52.034;5.554;2023-12-28T05:55:14;11.85;;;3.63;;
19026;SDS011;9646;52.034;5.554;2023-12-28T05:57:41;11.48;;;3.20;;
19026;SDS011;9646;52.034;5.554;2023-12-28T06:00:09;12.38;;;3.30;;
19026;SDS011;9646;52.034;5.554;2023-12-28T06:02:37;9.73;;;2.70;;
19026;SDS011;9646;52.034;5.554;2023-12-28T06:05:04;8.25;;;2.45;;
19026;SDS011;9646;52.034;5.554;2023-12-28T06:07:31;11.18;;;3.38;;
19026;SDS011;9646;52.034;5.554;2023-12-28T06:09:59;13.00;;;3.38;;
19026;SDS011;9646;52.034;5.554;2023-12-28T06:12:26;7.90;;;2.63;;
19026;SDS011;9646;52.034;5.554;2023-12-28T06:14:53;8.55;;;3.08;;
19026;SDS011;9646;52.034;5.554;2023-12-28T06:17:20;14.25;;;3.15;;
19026;SDS011;9646;52.034;5.554;2023-12-28T06:19:47;12.77;;;3.28;;
19026;SDS011;9646;52.034;5.554;2023-12-28T06:22:15;9.80;;;2.38;;
19026;SDS011;9646;52.034;5.554;2023-12-28T06:24:42;9.45;;;3.35;;
19026;SDS011;9646;52.034;5.554;2023-12-28T06:27:10;12.57;;;3.60;;
19026;SDS011;9646;52.034;5.554;2023-12-28T06:29:37;9.93;;;2.63;;
19026;SDS011;9646;52.034;5.554;2023-12-28T06:32:05;13.13;;;2.65;;
19026;SDS011;9646;52.034;5.554;2023-12-28T06:34:32;13.13;;;3.10;;
19026;SDS011;9646;52.034;5.554;2023-12-28T06:36:59;11.40;;;3.05;;
19026;SDS011;9646;52.034;5.554;2023-12-28T06:39:27;11.18;;;2.78;;
19026;SDS011;9646;52.034;5.554;2023-12-28T06:41:54;11.13;;;3.25;;
19026;SDS011;9646;52.034;5.554;2023-12-28T06:44:22;10.25;;;3.05;;
19026;SDS011;9646;52.034;5.554;2023-12-28T06:46:49;15.00;;;3.67;;
19026;SDS011;9646;52.034;5.554;2023-12-28T06:49:16;13.40;;;3.13;;
19026;SDS011;9646;52.034;5.554;2023-12-28T06:51:43;13.05;;;3.05;;
19026;SDS011;9646;52.034;5.554;2023-12-28T06:54:11;14.23;;;3.85;;
19026;SDS011;9646;52.034;5.554;2023-12-28T06:56:38;10.68;;;3.25;;
19026;SDS011;9646;52.034;5.554;2023-12-28T06:59:05;11.90;;;3.47;;
19026;SDS011;9646;52.034;5.554;2023-12-28T07:01:33;14.43;;;2.67;;
19026;SDS011;9646;52.034;5.554;2023-12-28T07:04:00;13.60;;;3.10;;
19026;SDS011;9646;52.034;5.554;2023-12-28T07:06:27;14.60;;;3.17;;
19026;SDS011;9646;52.034;5.554;2023-12-28T07:08:55;14.65;;;3.67;;
19026;SDS011;9646;52.034;5.554;2023-12-28T07:11:22;12.70;;;3.70;;
19026;SDS011;9646;52.034;5.554;2023-12-28T07:13:49;10.93;;;2.65;;
19026;SDS011;9646;52.034;5.554;2023-12-28T07:16:16;11.18;;;2.70;;
19026;SDS011;9646;52.034;5.554;2023-12-28T07:18:44;8.90;;;2.47;;
19026;SDS011;9646;52.034;5.554;2023-12-28T07:21:11;12.05;;;2.38;;
19026;SDS011;9646;52.034;5.554;2023-12-28T07:23:38;16.73;;;3.63;;
19026;SDS011;9646;52.034;5.554;2023-12-28T07:26:05;14.63;;;3.53;;
19026;SDS011;9646;52.034;5.554;2023-12-28T07:28:32;14.82;;;3.42;;
19026;SDS011;9646;52.034;5.554;2023-12-28T07:30:59;13.57;;;3.72;;
19026;SDS011;9646;52.034;5.554;2023-12-28T07:33:26;16.42;;;3.15;;
19026;SDS011;9646;52.034;5.554;2023-12-28T07:35:55;13.85;;;3.22;;
19026;SDS011;9646;52.034;5.554;2023-12-28T07:38:24;13.38;;;3.50;;
19026;SDS011;9646;52.034;5.554;2023-12-28T07:40:51;14.65;;;3.28;;
19026;SDS011;9646;52.034;5.554;2023-12-28T07:43:18;12.50;;;2.83;;
19026;SDS011;9646;52.034;5.554;2023-12-28T07:45:45;17.95;;;3.22;;
19026;SDS011;9646;52.034;5.554;2023-12-28T07:48:12;15.40;;;3.72;;
19026;SDS011;9646;52.034;5.554;2023-12-28T07:50:40;15.82;;;3.20;;
19026;SDS011;9646;52.034;5.554;2023-12-28T07:53:08;19.35;;;3.67;;
19026;SDS011;9646;52.034;5.554;2023-12-28T07:55:35;16.40;;;3.53;;
19026;SDS011;9646;52.034;5.554;2023-12-28T07:58:02;12.82;;;3.03;;
19026;SDS011;9646;52.034;5.554;2023-12-28T08:00:30;17.52;;;3.13;;
19026;SDS011;9646;52.034;5.554;2023-12-28T08:02:57;12.68;;;2.75;;
19026;SDS011;9646;52.034;5.554;2023-12-28T08:05:24;15.00;;;3.55;;
19026;SDS011;9646;52.034;5.554;2023-12-28T08:07:51;13.25;;;3.53;;
19026;SDS011;9646;52.034;5.554;2023-12-28T08:10:19;12.95;;;3.08;;
19026;SDS011;9646;52.034;5.554;2023-12-28T08:12:46;17.48;;;3.53;;
19026;SDS011;9646;52.034;5.554;2023-12-28T08:15:13;12.25;;;3.28;;
19026;SDS011;9646;52.034;5.554;2023-12-28T08:17:40;15.00;;;3.35;;
19026;SDS011;9646;52.034;5.554;2023-12-28T08:20:07;15.38;;;3.38;;
19026;SDS011;9646;52.034;5.554;2023-12-28T08:22:35;15.02;;;3.60;;
19026;SDS011;9646;52.034;5.554;2023-12-28T08:25:02;17.45;;;3.20;;
19026;SDS011;9646;52.034;5.554;2023-12-28T08:27:30;10.30;;;2.80;;
19026;SDS011;9646;52.034;5.554;2023-12-28T08:29:57;15.45;;;4.13;;
19026;SDS011;9646;52.034;5.554;2023-12-28T08:32:24;17.58;;;4.13;;
19026;SDS011;9646;52.034;5.554;2023-12-28T08:34:51;14.65;;;3.60;;
19026;SDS011;9646;52.034;5.554;2023-12-28T08:37:18;16.00;;;3.58;;
19026;SDS011;9646;52.034;5.554;2023-12-28T08:39:46;15.00;;;3.95;;
19026;SDS011;9646;52.034;5.554;2023-12-28T08:42:13;15.43;;;3.17;;
19026;SDS011;9646;52.034;5.554;2023-12-28T08:44:41;18.25;;;3.63;;
19026;SDS011;9646;52.034;5.554;2023-12-28T08:47:08;21.23;;;3.83;;
19026;SDS011;9646;52.034;5.554;2023-12-28T08:49:35;17.35;;;3.72;;
19026;SDS011;9646;52.034;5.554;2023-12-28T08:52:02;16.48;;;4.45;;
19026;SDS011;9646;52.034;5.554;2023-12-28T08:54:29;14.38;;;3.65;;
19026;SDS011;9646;52.034;5.554;2023-12-28T08:56:56;14.65;;;4.22;;
19026;SDS011;9646;52.034;5.554;2023-12-28T08:59:24;23.08;;;4.45;;
19026;SDS011;9646;52.034;5.554;2023-12-28T09:01:54;17.00;;;4.10;;
19026;SDS011;9646;52.034;5.554;2023-12-28T09:04:21;15.18;;;3.20;;
19026;SDS011;9646;52.034;5.554;2023-12-28T09:06:48;13.98;;;3.70;;
19026;SDS011;9646;52.034;5.554;2023-12-28T09:09:15;16.83;;;4.15;;
19026;SDS011;9646;52.034;5.554;2023-12-28T09:11:42;8.77;;;2.50;;
19026;SDS011;9646;52.034;5.554;2023-12-28T09:14:09;15.93;;;3.50;;
19026;SDS011;9646;52.034;5.554;2023-12-28T09:16:36;12.15;;;3.35;;
19026;SDS011;9646;52.034;5.554;2023-12-28T09:19:05;13.50;;;3.55;;
19026;SDS011;9646;52.034;5.554;2023-12-28T09:21:32;17.08;;;4.10;;
19026;SDS011;9646;52.034;5.554;2023-12-28T09:23:59;18.75;;;3.33;;
19026;SDS011;9646;52.034;5.554;2023-12-28T09:26:27;15.32;;;3.50;;
19026;SDS011;9646;52.034;5.554;2023-12-28T09:28:54;18.33;;;3.47;;
19026;SDS011;9646;52.034;5.554;2023-12-28T09:31:21;16.00;;;3.85;;
19026;SDS011;9646;52.034;5.554;2023-12-28T09:33:48;17.08;;;3.80;;
19026;SDS011;9646;52.034;5.554;2023-12-28T09:36:18;21.23;;;4.20;;
19026;SDS011;9646;52.034;5.554;2023-12-28T09:38:45;17.90;;;4.45;;
19026;SDS011;9646;52.034;5.554;2023-12-28T09:41:12;14.85;;;3.80;;
19026;SDS011;9646;52.034;5.554;2023-12-28T09:43:41;21.27;;;3.95;;
19026;SDS011;9646;52.034;5.554;2023-12-28T09:46:12;17.60;;;4.07;;
19026;SDS011;9646;52.034;5.554;2023-12-28T09:48:39;19.17;;;3.65;;
19026;SDS011;9646;52.034;5.554;2023-12-28T09:51:06;15.93;;;3.38;;
19026;SDS011;9646;52.034;5.554;2023-12-28T09:53:34;16.40;;;3.85;;
19026;SDS011;9646;52.034;5.554;2023-12-28T09:56:02;15.85;;;3.97;;
19026;SDS011;9646;52.034;5.554;2023-12-28T09:58:29;14.75;;;3.63;;
19026;SDS011;9646;52.034;5.554;2023-12-28T10:00:57;16.73;;;3.92;;
19026;SDS011;9646;52.034;5.554;2023-12-28T10:03:26;18.77;;;4.05;;
19026;SDS011;9646;52.034;5.554;2023-12-28T10:05:53;21.48;;;4.75;;
19026;SDS011;9646;52.034;5.554;2023-12-28T10:08:20;18.17;;;3.42;;
19026;SDS011;9646;52.034;5.554;2023-12-28T10:10:49;18.98;;;3.85;;
19026;SDS011;9646;52.034;5.554;2023-12-28T10:13:19;15.63;;;3.42;;
19026;SDS011;9646;52.034;5.554;2023-12-28T10:15:46;15.32;;;3.35;;
19026;SDS011;9646;52.034;5.554;2023-12-28T10:18:14;15.60;;;3.08;;
19026;SDS011;9646;52.034;5.554;2023-12-28T10:20:48;14.70;;;3.40;;
19026;SDS011;9646;52.034;5.554;2023-12-28T10:23:16;17.23;;;3.40;;
19026;SDS011;9646;52.034;5.554;2023-12-28T10:25:43;10.48;;;2.88;;
19026;SDS011;9646;52.034;5.554;2023-12-28T10:28:11;15.40;;;3.70;;
19026;SDS011;9646;52.034;5.554;2023-12-28T10:30:39;16.40;;;3.75;;
19026;SDS011;9646;52.034;5.554;2023-12-28T10:33:07;17.48;;;3.45;;
19026;SDS011;9646;52.034;5.554;2023-12-28T10:35:34;16.13;;;3.88;;
19026;SDS011;9646;52.034;5.554;2023-12-28T10:38:01;17.60;;;3.55;;
19026;SDS011;9646;52.034;5.554;2023-12-28T10:40:28;12.80;;;3.70;;
19026;SDS011;9646;52.034;5.554;2023-12-28T10:42:57;19.08;;;3.88;;
19026;SDS011;9646;52.034;5.554;2023-12-28T10:45:28;23.10;;;4.13;;
19026;SDS011;9646;52.034;5.554;2023-12-28T10:47:58;19.80;;;3.78;;
19026;SDS011;9646;52.034;5.554;2023-12-28T10:50:28;19.52;;;4.22;;
19026;SDS011;9646;52.034;5.554;2023-12-28T10:53:00;17.33;;;5.07;;
19026;SDS011;9646;52.034;5.554;2023-12-28T10:55:30;19.42;;;5.07;;
19026;SDS011;9646;52.034;5.554;2023-12-28T10:58:03;19.60;;;4.10;;
19026;SDS011;9646;52.034;5.554;2023-12-28T11:00:33;22.95;;;4.90;;
19026;SDS011;9646;52.034;5.554;2023-12-28T11:03:03;20.40;;;3.83;;
19026;SDS011;9646;52.034;5.554;2023-12-28T11:05:32;15.43;;;3.80;;
19026;SDS011;9646;52.034;5.554;2023-12-28T11:07:59;21.80;;;4.30;;
19026;SDS011;9646;52.034;5.554;2023-12-28T11:10:28;15.00;;;3.42;;
19026;SDS011;9646;52.034;5.554;2023-12-28T11:12:56;16.90;;;4.95;;
19026;SDS011;9646;52.034;5.554;2023-12-28T11:15:24;13.98;;;4.32;;
19026;SDS011;9646;52.034;5.554;2023-12-28T11:17:53;14.25;;;3.22;;
19026;SDS011;9646;52.034;5.554;2023-12-28T11:20:20;21.00;;;4.22;;
19026;SDS011;9646;52.034;5.554;2023-12-28T11:22:48;18.63;;;4.55;;
19026;SDS011;9646;52.034;5.554;2023-12-28T11:25:15;16.38;;;3.85;;
19026;SDS011;9646;52.034;5.554;2023-12-28T11:27:41;16.42;;;4.88;;
19026;SDS011;9646;52.034;5.554;2023-12-28T11:30:10;16.20;;;3.92;;
19026;SDS011;9646;52.034;5.554;2023-12-28T11:32:37;21.85;;;3.72;;
19026;SDS011;9646;52.034;5.554;2023-12-28T11:35:07;22.35;;;5.00;;
19026;SDS011;9646;52.034;5.554;2023-12-28T11:37:35;16.02;;;3.88;;
19026;SDS011;9646;52.034;5.554;2023-12-28T11:40:13;21.75;;;4.68;;
19026;SDS011;9646;52.034;5.554;2023-12-28T11:42:47;18.67;;;4.80;;
19026;SDS011;9646;52.034;5.554;2023-12-28T11:45:16;13.32;;;3.92;;
19026;SDS011;9646;52.034;5.554;2023-12-28T11:47:43;21.60;;;4.40;;
19026;SDS011;9646;52.034;5.554;2023-12-28T11:50:12;21.35;;;4.18;;
19026;SDS011;9646;52.034;5.554;2023-12-28T11:52:39;16.83;;;4.38;;
19026;SDS011;9646;52.034;5.554;2023-12-28T11:55:06;23.45;;;4.50;;
19026;SDS011;9646;52.034;5.554;2023-12-28T11:57:33;23.33;;;4.70;;
19026;SDS011;9646;52.034;5.554;2023-12-28T12:00:01;18.42;;;4.15;;
19026;SDS011;9646;52.034;5.554;2023-12-28T12:02:29;18.73;;;4.05;;
19026;SDS011;9646;52.034;5.554;2023-12-28T12:04:56;17.00;;;3.40;;
19026;SDS011;9646;52.034;5.554;2023-12-28T12:07:27;17.77;;;3.65;;
19026;SDS011;9646;52.034;5.554;2023-12-28T12:09:57;17.80;;;4.22;;
19026;SDS011;9646;52.034;5.554;2023-12-28T12:12:24;16.85;;;4.03;;
19026;SDS011;9646;52.034;5.554;2023-12-28T12:14:51;17.23;;;3.63;;
19026;SDS011;9646;52.034;5.554;2023-12-28T12:17:18;17.10;;;3.95;;
19026;SDS011;9646;52.034;5.554;2023-12-28T12:19:46;19.08;;;4.35;;
19026;SDS011;9646;52.034;5.554;2023-12-28T12:22:16;16.55;;;4.05;;
19026;SDS011;9646;52.034;5.554;2023-12-28T12:24:45;19.35;;;3.55;;
19026;SDS011;9646;52.034;5.554;2023-12-28T12:27:14;18.13;;;4.85;;
19026;SDS011;9646;52.034;5.554;2023-12-28T12:29:41;17.95;;;3.75;;
19026;SDS011;9646;52.034;5.554;2023-12-28T12:32:08;15.73;;;4.22;;
19026;SDS011;9646;52.034;5.554;2023-12-28T12:34:35;21.70;;;4.65;;
19026;SDS011;9646;52.034;5.554;2023-12-28T12:37:03;21.23;;;3.88;;
19026;SDS011;9646;52.034;5.554;2023-12-28T12:39:30;22.55;;;3.90;;
19026;SDS011;9646;52.034;5.554;2023-12-28T12:41:59;18.65;;;4.10;;
19026;SDS011;9646;52.034;5.554;2023-12-28T12:44:27;19.35;;;4.03;;
19026;SDS011;9646;52.034;5.554;2023-12-28T12:46:58;17.02;;;3.97;;
19026;SDS011;9646;52.034;5.554;2023-12-28T12:49:26;19.27;;;4.57;;
19026;SDS011;9646;52.034;5.554;2023-12-28T12:51:53;19.25;;;4.65;;
19026;SDS011;9646;52.034;5.554;2023-12-28T12:54:20;20.23;;;4.00;;
19026;SDS011;9646;52.034;5.554;2023-12-28T12:56:47;17.02;;;4.25;;
19026;SDS011;9646;52.034;5.554;2023-12-28T12:59:16;13.85;;;3.17;;
19026;SDS011;9646;52.034;5.554;2023-12-28T13:01:43;22.10;;;4.22;;
19026;SDS011;9646;52.034;5.554;2023-12-28T13:04:10;16.75;;;4.07;;
19026;SDS011;9646;52.034;5.554;2023-12-28T13:06:37;17.58;;;4.03;;
19026;SDS011;9646;52.034;5.554;2023-12-28T13:09:04;25.48;;;4.35;;
19026;SDS011;9646;52.034;5.554;2023-12-28T13:11:32;16.08;;;3.97;;
19026;SDS011;9646;52.034;5.554;2023-12-28T13:16:31;24.17;;;3.72;;
19026;SDS011;9646;52.034;5.554;2023-12-28T13:18:58;20.30;;;4.57;;
19026;SDS011;9646;52.034;5.554;2023-12-28T13:21:25;17.20;;;4.28;;
19026;SDS011;9646;52.034;5.554;2023-12-28T13:23:52;17.80;;;4.00;;
19026;SDS011;9646;52.034;5.554;2023-12-28T13:26:19;20.42;;;4.30;;
19026;SDS011;9646;52.034;5.554;2023-12-28T13:28:46;16.05;;;4.05;;
19026;SDS011;9646;52.034;5.554;2023-12-28T13:31:13;15.05;;;3.83;;
19026;SDS011;9646;52.034;5.554;2023-12-28T13:33:42;18.15;;;3.90;;
19026;SDS011;9646;52.034;5.554;2023-12-28T13:36:09;16.80;;;4.72;;
19026;SDS011;9646;52.034;5.554;2023-12-28T13:38:36;15.80;;;3.20;;
19026;SDS011;9646;52.034;5.554;2023-12-28T13:41:03;22.60;;;5.00;;
19026;SDS011;9646;52.034;5.554;2023-12-28T13:43:30;13.50;;;3.78;;
19026;SDS011;9646;52.034;5.554;2023-12-28T13:45:57;18.15;;;3.35;;
19026;SDS011;9646;52.034;5.554;2023-12-28T13:48:24;20.52;;;3.85;;
19026;SDS011;9646;52.034;5.554;2023-12-28T13:50:52;15.75;;;4.13;;
19026;SDS011;9646;52.034;5.554;2023-12-28T13:53:19;16.55;;;3.53;;
19026;SDS011;9646;52.034;5.554;2023-12-28T13:55:47;19.65;;;4.50;;
19026;SDS011;9646;52.034;5.554;2023-12-28T13:58:14;21.05;;;3.90;;
19026;SDS011;9646;52.034;5.554;2023-12-28T14:00:41;21.23;;;3.83;;
19026;SDS011;9646;52.034;5.554;2023-12-28T14:03:08;15.38;;;3.60;;
19026;SDS011;9646;52.034;5.554;2023-12-28T14:05:35;16.08;;;3.35;;
19026;SDS011;9646;52.034;5.554;2023-12-28T14:08:04;12.80;;;3.50;;
19026;SDS011;9646;52.034;5.554;2023-12-28T14:10:31;19.80;;;3.85;;
19026;SDS011;9646;52.034;5.554;2023-12-28T14:12:58;17.83;;;3.47;;
19026;SDS011;9646;52.034;5.554;2023-12-28T14:15:25;16.65;;;3.78;;
19026;SDS011;9646;52.034;5.554;2023-12-28T14:17:52;22.48;;;3.95;;
19026;SDS011;9646;52.034;5.554;2023-12-28T14:20:19;13.70;;;3.13;;
19026;SDS011;9646;52.034;5.554;2023-12-28T14:22:46;16.55;;;3.60;;
19026;SDS011;9646;52.034;5.554;2023-12-28T14:25:15;16.08;;;4.22;;
19026;SDS011;9646;52.034;5.554;2023-12-28T14:27:43;14.43;;;3.95;;
19026;SDS011;9646;52.034;5.554;2023-12-28T14:30:10;21.40;;;4.43;;
19026;SDS011;9646;52.034;5.554;2023-12-28T14:32:38;21.05;;;3.92;;
19026;SDS011;9646;52.034;5.554;2023-12-28T14:35:05;11.88;;;3.40;;
19026;SDS011;9646;52.034;5.554;2023-12-28T14:37:32;18.13;;;4.47;;
19026;SDS011;9646;52.034;5.554;2023-12-28T14:39:59;14.18;;;3.70;;
19026;SDS011;9646;52.034;5.554;2023-12-28T14:42:32;18.00;;;4.30;;
19026;SDS011;9646;52.034;5.554;2023-12-28T14:44:59;12.43;;;3.35;;
19026;SDS011;9646;52.034;5.554;2023-12-28T14:47:27;17.17;;;3.92;;
19026;SDS011;9646;52.034;5.554;2023-12-28T14:49:54;21.42;;;3.95;;
19026;SDS011;9646;52.034;5.554;2023-12-28T14:52:22;19.02;;;4.35;;
19026;SDS011;9646;52.034;5.554;2023-12-28T14:54:49;19.48;;;4.25;;
19026;SDS011;9646;52.034;5.554;2023-12-28T14:57:19;21.52;;;4.50;;